Virtual Norwegian is not affiliated with Norwegian Air Shuttle in any way.
If you are looking for the real "Norwegian", or you wish to book Norwegian flights, please visit Norwegian.com


We use cookies to ensure you get the best experience on our website.   ACCEPT

LGZA - ZTH - Zakynthos (Dionysios Solomos)

General Info Alternate Airport
ICAO: LGZA Elevation: 15 ft ICAO: LGKF
IATA: ZTH Country: Greece IATA: EFL
City: Zakynthos Charts: Log in to view charts City: Keffallinia
Name: Dionysios Solomos Hub: No Name Kefallinia
General Info
ICAO: LGZA
IATA: ZTH
City: Zakynthos
Name: Dionysios Solomos
Elevation: 15 ft
Country: Greece
Charts: Log in to view charts
Hub: No
 
Alternate Airport
ICAO: LGKF
IATA: EFL
City: Keffallinia
Name: Kefallinia

Weather
211920Z 00000KT CAVOK 28/18 Q1016
Weather
211920Z 00000KT CAVOK 28/18 Q1016

NOTAMs
NOTAMs currently unavailable.
NOTAMs
NOTAMs currently unavailable

Route map
Airport
Airport (hub)